FAPE

Port Elizabeth Airport

Port Elizabeth, South Africa
METAR FAPE 152200Z 28004KT CAVOK 09/08 Q1023 NOSIG
Observed Flight Rules
Aug-15 @ 22:00 UTC (27 minutes ago) Visual Flight Rules
Wind Visibility Clouds
280° at 4 knots 10,000+ meters
  • Clear skies
Temperatures Readings
Current 9°C / 48°F
Dewpoint 8°C / 46°F
Humidity 94%
Altimeter 30.21" Hg
Pressure 1023 hPa
Elevation 60
METAR FAPE 152200Z 28004KT CAVOK 09/08 Q1023 NOSIG
Observed Flight Rules
Aug-15 @ 22:00 UTC
(27 minutes ago)
VFR
Wind Visibility
280° at 4 knots 10,000+ meters
Clouds
  • Clear skies
Temperature Dewpoint
9°C / 48°F 8°C / 46°F
Humidity Altimeter Pressure
94% 30.21" Hg 1023 hPa